• Join FlightAware (Why Join?)
  • Login
  • US Flag 
04:59AM EDT


 

Airport Tracker/Info


-or-


 

Live Flight TrackerFlight Track Log ✈ RPA3275 ✈ 13-Nov-2013 ✈ KALB - KPHL

Flight Track Log - Related Links

Times and Time Zones

All times are in EST time to prevent confusion due to time zone crossing. See the RPA3275 flight status page for this flight to view local times or setup timezone preferences in your user account.

Time Position Orientation Groundspeed Altitude Reporting Facility
EST Latitude Longitude Course Direction KTS MPH feet Rate Location/Type
07:51AM 42.7614 -73.8067 180° South 136 157 1,600  Level Boston Center
07:52AM 42.7936 -73.8175 346° North 176 203 3,400 2,580 Climbing Boston Center
07:52AM 42.7981 -73.8386 286° West 181 208 4,400 3,420 Climbing Boston Center
07:53AM 42.7872 -73.9222 260° West 229 264 7,600 2,700 Climbing Boston Center
07:54AM 42.3686 -74.0003 180° South  Level Estimated
07:54AM 42.7772 -74.0206 262° West 264 304 10,000  Level Boston Center
07:55AM 42.2885 -74.0854 218° Southwest  Level FlightAware Approximate
07:55AM 42.7650 -74.1286 261° West 290 334 10,700  Level Boston Center
07:56AM 42.1928 -74.1329 180° South  Level Estimated
07:56AM 42.7519 -74.2478 262° West 297 342 12,600  Level Boston Center
07:57AM 42.7147 -74.3425 242° Southwest 311 358 15,100 2,400 Climbing Boston Center
07:58AM 42.6453 -74.4239 221° Southwest 328 377 17,600 1,380 Climbing Boston Center
07:59AM 42.5703 -74.5108 221° Southwest 356 410 18,000 180 Climbing Boston Center
08:00AM 42.4867 -74.6067 220° Southwest 365 420 18,000  Level Boston Center
08:01AM 42.4089 -74.6961 220° Southwest 368 423 18,000  Level Boston Center
08:02AM 42.3286 -74.7864 220° Southwest 372 428 18,000  Level Boston Center
08:03AM 42.2461 -74.8825 221° Southwest 374 430 18,000  Level Boston Center
08:04AM 42.1667 -74.9700 219° Southwest 372 428 18,000  Level Boston Center
08:05AM 42.0778 -75.0422 211° Southwest 375 432 18,000  Level Boston Center
08:06AM 41.9886 -75.1111 210° Southwest 375 432 18,000  Level Boston Center
08:07AM 41.9042 -75.1850 213° Southwest 376 433 18,000  Level Boston Center
08:08AM 41.8006 -75.2700 211° Southwest 381 438 18,000 -120 Level New York Center
08:09AM 41.7169 -75.3367 211° Southwest 381 438 17,800 -1,020 Descending New York Center
08:10AM 41.6222 -75.4133 211° Southwest 376 433 16,000 -1,980 Descending New York Center
08:11AM 41.5406 -75.4769 210° Southwest 362 417 13,900 -1,860 Descending New York Center
08:12AM 41.4653 -75.5381 211° Southwest 340 391 12,300 -960 Descending New York Center
08:13AM 41.3986 -75.5914 211° Southwest 322 371 12,000 -180 Descending New York Center
08:14AM 41.3233 -75.6497 210° Southwest 322 371 12,000 -300 Level New York Center
08:15AM 41.2447 -75.6853 199° South 316 364 11,400 -900 Descending New York Center
08:16AM 41.1503 -75.6536 166° South 302 348 10,300 -720 Descending New York Center
08:17AM 41.0661 -75.6256 166° South 311 358 10,000 -180 Descending New York Center
08:18AM 40.9817 -75.6003 167° South 316 364 10,000  Level New York Center
08:19AM 40.8992 -75.5753 167° South 311 358 10,000  Level New York Center
08:20AM 40.8253 -75.5508 166° South 311 358 10,000  Level New York Center
08:21AM 40.7328 -75.5197 166° South 316 364 10,000  Level New York Center
08:22AM 40.6503 -75.4950 167° South 316 364 10,000  Level New York Center
08:23AM 40.5681 -75.4675 166° South 311 358 10,000 -60 Level New York Center
08:24AM 40.4939 -75.4458 167° South 311 358 9,900 -60 Descending New York Center
08:25AM 40.4142 -75.4106 161° South 311 358 9,900 -420 Level New York Center
08:26AM 40.3306 -75.4186 184° South 285 328 9,100 -900 Descending New York Center
08:27AM 40.2736 -75.4828 221° Southwest 265 305 8,100 -600 Descending New York Center
08:28AM 40.2178 -75.5278 212° Southwest 259 298 7,900 -300 Descending New York Center
08:29AM 40.1764 -75.4653 131° Southeast 204 235 7,500 -600 Descending New York Center
08:30AM 40.1358 -75.3839 123° Southeast 222 255 6,700 -840 Descending New York Center
08:31AM 40.1167 -75.3333 116° Southeast 238 274 6,000 -420 Descending Philadelphia TRACON
08:32AM 40.0833 -75.2667 123° Southeast 231 266 6,000  Level Philadelphia TRACON
08:33AM 40.0333 -75.2000 134° Southeast 220 253 6,000  Level Philadelphia TRACON
08:34AM 39.9833 -75.1667 153° Southeast 214 246 6,000  Level Philadelphia TRACON
08:35AM 39.9833 -75.1000 90° East 198 228 6,000 -120 Level Philadelphia TRACON
08:36AM 40.0000 -75.0333 72° East 188 216 5,800 -540 Descending Philadelphia TRACON
08:37AM 40.0167 -74.9667 72° East 166 191 5,000 -480 Descending Philadelphia TRACON
08:38AM 40.0333 -74.9167 66° East 168 193 5,000  Level Philadelphia TRACON
08:39AM 40.0500 -74.8500 72° East 169 194 5,000  Level Philadelphia TRACON
08:40AM 40.0000 -74.8333 166° South 209 241 5,000 -300 Level Philadelphia TRACON
08:41AM 39.9667 -74.8500 201° Southwest 187 215 4,500 -960 Descending Philadelphia TRACON
08:42AM 39.9333 -74.9167 237° Southwest 162 186 3,100 -660 Descending Philadelphia TRACON
08:43AM 39.9333 -74.9667 270° West 164 189 3,100 -60 Level Philadelphia TRACON
08:44AM 39.9167 -75.0333 252° West 162 186 3,000 -360 Descending Philadelphia TRACON
08:45AM 39.9000 -75.0833 247° West 161 185 2,500 -840 Descending Philadelphia TRACON
08:46AM 39.9000 -75.1333 270° West 163 188 1,500 -900 Descending Philadelphia TRACON
08:47AM 39.8833 -75.1833 247° West 117 135 700 -780 Descending Philadelphia TRACON